Aviation Digital Data Service (ADDS)

Output produced by METARs form (1727 UTC 24 June 2019)
found at http://www.aviationweather.gov/metar/data/
 
Forecast for: AMD
Text: TAF AMD ETND 241330Z 2411/2420 11012KT 9999 NSW SCT380 CANCEL 1330 BY ETGL
Forecast period: 1100 to 2000 UTC 24 June 2019
Forecast type: FROM: standard forecast or significant change
Winds: from the ESE (110 degrees) at 14 MPH (12 knots; 6.2 m/s)
Visibility: 6 or more miles 10+ km)
Ceiling: at least 12,000 feet AGL
Clouds: scattered clouds at 38000 feet AGL
Weather: NSW  (no significant weather)